createdAt,value
2019-05-01T00:00:24.652Z,9.00
2019-05-01T00:02:20.855Z,8.90
2019-05-01T00:04:15.442Z,8.90
2019-05-01T00:06:10.303Z,8.90
2019-05-01T00:08:03.436Z,8.80
2019-05-01T00:09:56.730Z,8.80
2019-05-01T00:11:50.211Z,8.90
2019-05-01T00:13:43.549Z,8.80
2019-05-01T00:15:39.503Z,8.80
2019-05-01T00:17:34.288Z,8.70
2019-05-01T00:19:27.647Z,8.80
2019-05-01T00:21:20.484Z,8.70
2019-05-01T00:23:13.781Z,8.70
2019-05-01T00:25:07.391Z,8.70
2019-05-01T00:27:00.516Z,8.70
2019-05-01T00:28:53.792Z,8.70
2019-05-01T00:30:46.534Z,8.60
2019-05-01T00:32:38.887Z,8.60
2019-05-01T00:34:31.939Z,8.50
2019-05-01T00:36:25.366Z,8.50
2019-05-01T00:38:19.647Z,8.50
2019-05-01T00:40:12.427Z,8.50
2019-05-01T00:42:05.489Z,8.50
2019-05-01T00:43:58.560Z,8.50
2019-05-01T00:45:51.964Z,8.40
2019-05-01T00:47:45.278Z,8.40
2019-05-01T00:49:37.876Z,8.30
2019-05-01T00:51:30.865Z,8.20
2019-05-01T00:53:24.104Z,8.20
2019-05-01T00:55:34.362Z,8.10
2019-05-01T00:57:29.064Z,8.10
2019-05-01T00:59:26.798Z,8.10
2019-05-01T01:01:37.788Z,8.10
2019-05-01T01:03:30.847Z,8.20
2019-05-01T01:05:23.122Z,8.20
2019-05-01T01:07:16.264Z,8.30
2019-05-01T01:09:09.200Z,8.30
2019-05-01T01:11:03.872Z,8.20
2019-05-01T01:12:56.832Z,8.10
2019-05-01T01:14:50.103Z,8.20
2019-05-01T01:16:42.884Z,8.10
2019-05-01T01:18:35.801Z,8.10
2019-05-01T01:20:28.229Z,8.10
2019-05-01T01:22:21.441Z,8.10
2019-05-01T01:24:14.883Z,8.10
2019-05-01T01:26:08.604Z,8.10
2019-05-01T01:28:01.812Z,8.00
2019-05-01T01:29:54.131Z,8.00
2019-05-01T01:31:47.165Z,8.00
2019-05-01T01:33:40.360Z,8.00
2019-05-01T01:35:32.660Z,8.00
2019-05-01T01:37:25.610Z,7.90
2019-05-01T01:39:18.385Z,7.90
2019-05-01T01:41:10.984Z,7.90
2019-05-01T01:43:23.653Z,8.00
2019-05-01T01:45:30.652Z,8.00
2019-05-01T01:47:24.274Z,7.90
2019-05-01T01:49:18.067Z,7.90
2019-05-01T01:51:11.095Z,7.90
2019-05-01T01:53:04.281Z,7.90
2019-05-01T01:54:57.850Z,7.80
2019-05-01T01:56:51.704Z,7.80
2019-05-01T01:58:45.484Z,7.70
2019-05-01T02:01:08.913Z,7.80
2019-05-01T02:02:53.557Z,7.80
2019-05-01T02:04:51.282Z,7.70
2019-05-01T02:06:45.347Z,7.70
2019-05-01T02:08:38.635Z,7.70
2019-05-01T02:10:42.299Z,7.70
2019-05-01T02:12:26.495Z,7.70
2019-05-01T02:14:19.855Z,7.70
2019-05-01T02:16:12.856Z,7.80
2019-05-01T02:18:06.117Z,7.80
2019-05-01T02:19:58.377Z,7.70
2019-05-01T02:21:51.643Z,7.50
2019-05-01T02:23:44.910Z,7.50
2019-05-01T02:25:39.524Z,7.50
2019-05-01T02:27:50.684Z,7.50
2019-05-01T02:29:52.095Z,7.50
2019-05-01T02:31:48.165Z,7.50
2019-05-01T02:33:44.150Z,7.50
2019-05-01T02:35:38.596Z,7.60
2019-05-01T02:37:33.464Z,7.50
2019-05-01T02:39:28.088Z,7.50
2019-05-01T02:41:22.756Z,7.50
2019-05-01T02:43:18.224Z,7.50
2019-05-01T02:45:11.581Z,7.40
2019-05-01T02:47:07.995Z,7.40
2019-05-01T02:49:19.409Z,7.30
2019-05-01T02:51:13.698Z,7.30
2019-05-01T02:53:06.841Z,7.30
2019-05-01T02:55:04.128Z,7.30
2019-05-01T02:57:09.207Z,7.20
2019-05-01T02:59:04.375Z,7.20
2019-05-01T03:00:57.289Z,7.20
2019-05-01T03:02:50.688Z,7.20
2019-05-01T03:04:45.996Z,7.20
2019-05-01T03:06:40.629Z,7.10
2019-05-01T03:08:34.873Z,7.00
2019-05-01T03:10:27.964Z,7.00
2019-05-01T03:12:25.560Z,6.90
2019-05-01T03:14:21.414Z,6.90
2019-05-01T03:16:15.769Z,6.90
2019-05-01T03:18:13.379Z,6.90
2019-05-01T03:20:13.043Z,6.90
2019-05-01T03:22:20.163Z,6.90
2019-05-01T03:24:15.877Z,6.80
2019-05-01T03:26:09.260Z,6.70
2019-05-01T03:28:02.475Z,6.70
2019-05-01T03:29:55.242Z,6.70
2019-05-01T03:32:14.178Z,6.70
2019-05-01T03:33:43.717Z,6.70
2019-05-01T03:35:36.633Z,6.70
2019-05-01T03:37:30.549Z,6.70
2019-05-01T03:39:23.570Z,6.60
2019-05-01T03:41:17.385Z,6.60
2019-05-01T03:43:10.552Z,6.60
2019-05-01T03:45:05.876Z,6.60
2019-05-01T03:46:59.729Z,6.60
2019-05-01T03:48:52.671Z,6.50
2019-05-01T03:50:47.997Z,6.50
2019-05-01T03:52:41.475Z,6.50
2019-05-01T03:54:34.476Z,6.50
2019-05-01T03:56:27.683Z,6.40
2019-05-01T03:58:21.414Z,6.40
2019-05-01T04:00:16.731Z,6.50
2019-05-01T04:02:32.087Z,6.50
2019-05-01T04:04:18.446Z,6.40
2019-05-01T04:06:11.354Z,6.40
2019-05-01T04:08:04.909Z,6.40
2019-05-01T04:09:58.289Z,6.40
2019-05-01T04:11:51.625Z,6.50
2019-05-01T04:13:44.105Z,6.40
2019-05-01T04:15:37.601Z,6.50
2019-05-01T04:17:32.600Z,6.40
2019-05-01T04:19:26.248Z,6.40
2019-05-01T04:21:21.679Z,6.40
2019-05-01T04:23:15.696Z,6.30
2019-05-01T04:25:08.894Z,6.30
2019-05-01T04:27:03.626Z,6.40
2019-05-01T04:29:14.160Z,6.30
2019-05-01T04:31:25.641Z,6.40
2019-05-01T04:33:20.702Z,6.40
2019-05-01T04:35:30.598Z,6.40
2019-05-01T04:37:25.371Z,6.50
2019-05-01T04:39:19.344Z,6.40
2019-05-01T04:41:12.625Z,6.40
2019-05-01T04:43:06.161Z,6.50
2019-05-01T04:45:02.009Z,6.50
2019-05-01T04:46:57.736Z,6.50
2019-05-01T04:48:50.675Z,6.50
2019-05-01T04:50:44.393Z,6.60
2019-05-01T04:52:38.115Z,6.60
2019-05-01T04:54:31.493Z,6.60
2019-05-01T04:56:23.899Z,6.70
2019-05-01T04:58:17.453Z,6.70
2019-05-01T05:00:11.002Z,6.80
2019-05-01T05:02:06.069Z,6.70
2019-05-01T05:03:59.281Z,6.80
2019-05-01T05:05:52.964Z,6.90
2019-05-01T05:07:46.605Z,6.90
2019-05-01T05:09:42.125Z,7.00
2019-05-01T05:11:55.184Z,7.00
2019-05-01T05:14:06.309Z,7.00
2019-05-01T05:16:02.117Z,7.10
2019-05-01T05:17:55.389Z,7.10
2019-05-01T05:19:48.709Z,7.20
2019-05-01T05:21:41.648Z,7.20
2019-05-01T05:23:35.441Z,7.20
2019-05-01T05:25:29.279Z,7.30
2019-05-01T05:27:24.652Z,7.40
2019-05-01T05:29:20.496Z,7.40
2019-05-01T05:31:14.783Z,7.50
2019-05-01T05:33:18.198Z,7.60
2019-05-01T05:35:06.957Z,7.70
2019-05-01T05:37:04.820Z,7.80
2019-05-01T05:39:01.219Z,7.90
2019-05-01T05:41:00.293Z,8.00
2019-05-01T05:42:52.630Z,8.00
2019-05-01T05:44:47.576Z,8.10
2019-05-01T05:46:41.564Z,8.20
2019-05-01T05:48:34.487Z,8.30
2019-05-01T05:50:37.166Z,8.40
2019-05-01T05:52:33.035Z,8.50
2019-05-01T05:54:32.671Z,8.60
2019-05-01T05:56:30.256Z,8.80
2019-05-01T05:58:27.015Z,8.90
2019-05-01T06:00:39.709Z,8.90
2019-05-01T06:02:43.581Z,9.00
2019-05-01T06:04:41.117Z,9.10
2019-05-01T06:06:48.430Z,9.10
2019-05-01T06:08:44.386Z,9.20
2019-05-01T06:10:42.841Z,9.30
2019-05-01T06:12:41.659Z,9.40
2019-05-01T06:14:40.434Z,9.50
2019-05-01T06:16:40.425Z,9.60
2019-05-01T06:18:52.351Z,9.70
2019-05-01T06:21:03.938Z,9.90
2019-05-01T06:23:20.600Z,10.00
2019-05-01T06:25:22.334Z,9.90
2019-05-01T06:27:15.830Z,9.70
2019-05-01T06:29:08.893Z,9.90
2019-05-01T06:31:23.006Z,10.10
2019-05-01T06:33:14.049Z,10.10
2019-05-01T06:35:07.713Z,10.30
2019-05-01T06:37:01.292Z,10.40
2019-05-01T06:38:55.947Z,10.60
2019-05-01T06:40:53.197Z,10.60
2019-05-01T06:42:50.145Z,10.50
2019-05-01T06:44:48.274Z,10.50
2019-05-01T06:46:49.572Z,10.50
2019-05-01T06:48:54.581Z,10.70
2019-05-01T06:50:50.425Z,10.80
2019-05-01T06:52:44.435Z,10.80
2019-05-01T06:54:37.772Z,11.00
2019-05-01T06:56:31.495Z,11.10
2019-05-01T06:58:24.981Z,11.20
2019-05-01T07:00:18.541Z,11.30
2019-05-01T07:02:16.000Z,11.30
2019-05-01T07:04:09.499Z,11.30
2019-05-01T07:06:13.837Z,11.20
2019-05-01T07:07:58.383Z,11.40
2019-05-01T07:09:52.776Z,11.50
2019-05-01T07:11:47.557Z,11.60
2019-05-01T07:13:55.662Z,11.80
2019-05-01T07:15:48.185Z,11.60
2019-05-01T07:17:43.934Z,11.60
2019-05-01T07:19:50.787Z,11.60
2019-05-01T07:21:45.604Z,11.80
2019-05-01T07:23:39.391Z,11.80
2019-05-01T07:25:34.940Z,11.80
2019-05-01T07:27:27.164Z,11.90
2019-05-01T07:29:21.072Z,12.00
2019-05-01T07:31:17.304Z,12.20
2019-05-01T07:33:11.947Z,12.40
2019-05-01T07:35:05.805Z,12.50
2019-05-01T07:37:00.217Z,12.50
2019-05-01T07:38:53.648Z,12.50
2019-05-01T07:40:47.134Z,12.60
2019-05-01T07:42:43.674Z,12.90
2019-05-01T07:44:41.703Z,13.00
2019-05-01T07:46:36.680Z,13.10
2019-05-01T07:48:41.707Z,13.10
2019-05-01T07:50:34.653Z,13.20
2019-05-01T07:52:28.578Z,13.40
2019-05-01T07:54:22.701Z,13.40
2019-05-01T07:56:17.245Z,13.30
2019-05-01T07:58:15.875Z,13.40
2019-05-01T08:00:09.800Z,13.50
2019-05-01T08:02:05.035Z,13.60
2019-05-01T08:03:58.179Z,13.70
2019-05-01T08:05:51.709Z,13.80
2019-05-01T08:07:44.771Z,14.00
2019-05-01T08:09:37.581Z,13.90
2019-05-01T08:11:30.296Z,13.70
2019-05-01T08:13:23.163Z,13.60
2019-05-01T08:15:15.481Z,13.80
2019-05-01T08:17:12.808Z,14.10
2019-05-01T08:18:50.335Z,14.40
2019-05-01T08:20:29.353Z,14.30
2019-05-01T08:22:05.497Z,14.50
2019-05-01T08:23:42.581Z,14.60
2019-05-01T08:25:16.101Z,14.70
2019-05-01T08:26:51.779Z,14.70
2019-05-01T08:28:44.201Z,14.60
2019-05-01T08:30:48.041Z,14.60
2019-05-01T08:32:41.143Z,14.60
2019-05-01T08:34:48.242Z,14.60
2019-05-01T08:36:30.673Z,14.60
2019-05-01T08:38:23.319Z,14.90
2019-05-01T08:40:20.493Z,15.00
2019-05-01T08:42:11.540Z,15.20
2019-05-01T08:44:05.810Z,15.30
2019-05-01T08:46:16.453Z,15.50
2019-05-01T08:48:08.986Z,15.60
2019-05-01T08:50:03.468Z,15.40
2019-05-01T08:51:56.827Z,15.30
2019-05-01T08:53:52.759Z,15.50
2019-05-01T08:55:47.063Z,15.10
2019-05-01T08:57:40.037Z,15.00
2019-05-01T08:59:32.835Z,14.80
2019-05-01T09:01:25.248Z,14.90
2019-05-01T09:03:19.186Z,15.00
2019-05-01T09:05:28.406Z,14.80
2019-05-01T09:07:14.677Z,15.00
2019-05-01T09:09:10.003Z,15.10
2019-05-01T09:11:03.348Z,15.30
2019-05-01T09:12:56.649Z,15.50
2019-05-01T09:14:51.202Z,15.70
2019-05-01T09:16:43.913Z,15.80
2019-05-01T09:18:36.945Z,15.80
2019-05-01T09:20:30.984Z,15.60
2019-05-01T09:22:24.408Z,15.70
2019-05-01T09:24:18.042Z,15.80
2019-05-01T09:26:22.239Z,15.70
2019-05-01T09:28:35.963Z,16.10
2019-05-01T09:30:29.992Z,16.30
2019-05-01T09:32:23.979Z,16.40
2019-05-01T09:34:19.105Z,16.40
2019-05-01T09:36:12.464Z,16.20
2019-05-01T09:38:05.568Z,16.30
2019-05-01T09:39:59.001Z,16.50
2019-05-01T09:41:51.226Z,16.60
2019-05-01T09:43:45.237Z,16.40
2019-05-01T09:45:38.457Z,16.60
2019-05-01T09:47:31.737Z,16.30
2019-05-01T09:49:24.888Z,16.50
2019-05-01T09:51:19.759Z,16.60
2019-05-01T09:53:17.079Z,16.80
2019-05-01T09:55:28.253Z,16.80
2019-05-01T09:57:21.960Z,16.90
2019-05-01T09:59:17.501Z,16.40
2019-05-01T10:01:11.935Z,16.50
2019-05-01T10:03:04.860Z,16.50
2019-05-01T10:05:02.092Z,16.50
2019-05-01T10:06:54.157Z,16.60
2019-05-01T10:08:47.797Z,16.60
2019-05-01T10:10:41.098Z,16.50
2019-05-01T10:12:35.142Z,16.40
2019-05-01T10:14:31.632Z,16.60
2019-05-01T10:16:23.383Z,16.90
2019-05-01T10:18:15.552Z,17.20
2019-05-01T10:20:08.298Z,17.00
2019-05-01T10:22:02.420Z,17.10
2019-05-01T10:23:56.809Z,16.90
2019-05-01T10:25:51.254Z,16.70
2019-05-01T10:28:01.332Z,16.80
2019-05-01T10:30:03.139Z,17.00
2019-05-01T10:32:04.865Z,16.70
2019-05-01T10:34:17.823Z,17.10
2019-05-01T10:36:18.163Z,16.90
2019-05-01T10:38:09.459Z,16.80
2019-05-01T10:40:01.854Z,16.60
2019-05-01T10:41:56.211Z,16.40
2019-05-01T10:43:49.898Z,16.40
2019-05-01T10:45:43.383Z,16.40
2019-05-01T10:47:39.101Z,16.70
2019-05-01T10:49:32.321Z,17.00
2019-05-01T10:51:25.730Z,17.10
2019-05-01T10:53:19.171Z,17.60
2019-05-01T10:55:12.625Z,18.00
2019-05-01T10:57:04.887Z,17.90
2019-05-01T10:58:58.772Z,18.00
2019-05-01T11:00:54.482Z,18.10
2019-05-01T11:02:47.732Z,18.00
2019-05-01T11:04:40.976Z,18.10
2019-05-01T11:06:33.409Z,18.30
2019-05-01T11:08:27.633Z,18.10
2019-05-01T11:10:21.141Z,18.20
2019-05-01T11:12:13.966Z,18.20
2019-05-01T11:14:07.545Z,18.40
2019-05-01T11:16:00.390Z,18.40
2019-05-01T11:17:53.821Z,18.50
2019-05-01T11:19:47.313Z,18.30
2019-05-01T11:21:40.614Z,18.60
2019-05-01T11:23:32.920Z,18.70
2019-05-01T11:25:26.464Z,18.60
2019-05-01T11:27:19.794Z,18.40
2019-05-01T11:29:13.346Z,18.40
2019-05-01T11:31:08.393Z,18.30
2019-05-01T11:33:03.304Z,18.50
2019-05-01T11:35:10.233Z,18.70
2019-05-01T11:37:21.581Z,18.40
2019-05-01T11:39:35.930Z,18.30
2019-05-01T11:41:29.744Z,18.30
2019-05-01T11:43:22.780Z,18.50
2019-05-01T11:45:15.147Z,18.60
2019-05-01T11:47:08.042Z,18.70
2019-05-01T11:49:01.536Z,18.60
2019-05-01T11:50:53.920Z,18.60
2019-05-01T11:52:46.851Z,18.30
2019-05-01T11:54:39.187Z,17.70
2019-05-01T11:56:32.777Z,17.40
2019-05-01T11:58:25.007Z,18.10
2019-05-01T12:00:19.476Z,18.30
2019-05-01T12:02:12.830Z,18.80
2019-05-01T12:04:06.087Z,19.10
2019-05-01T12:05:59.463Z,19.70
2019-05-01T12:07:52.499Z,20.20
2019-05-01T12:09:45.836Z,20.90
2019-05-01T12:11:39.684Z,21.30
2019-05-01T12:13:43.190Z,21.70
2019-05-01T12:15:27.632Z,21.80
2019-05-01T12:17:22.285Z,21.90
2019-05-01T12:19:15.513Z,21.40
2019-05-01T12:21:08.896Z,21.50
2019-05-01T12:23:02.783Z,21.90
2019-05-01T12:24:57.512Z,23.80
2019-05-01T12:26:50.576Z,23.90
2019-05-01T12:28:43.959Z,22.60
2019-05-01T12:30:37.093Z,22.20
2019-05-01T12:32:30.762Z,22.40
2019-05-01T12:34:23.196Z,22.70
2019-05-01T12:36:15.888Z,22.40
2019-05-01T12:38:09.024Z,22.40
2019-05-01T12:40:02.307Z,22.70
2019-05-01T12:42:02.465Z,23.70
2019-05-01T12:43:55.449Z,23.90
2019-05-01T12:45:50.465Z,24.00
2019-05-01T12:47:48.235Z,23.90
2019-05-01T12:49:44.041Z,24.10
2019-05-01T12:51:38.750Z,23.40
2019-05-01T12:53:33.194Z,23.50
2019-05-01T12:55:43.985Z,23.70
2019-05-01T12:57:37.860Z,23.90
2019-05-01T12:59:31.278Z,24.40
2019-05-01T13:01:24.891Z,23.60
2019-05-01T13:03:18.150Z,23.70
2019-05-01T13:05:11.415Z,24.50
2019-05-01T13:07:04.506Z,24.90
2019-05-01T13:08:57.586Z,24.90
2019-05-01T13:10:50.957Z,23.90
2019-05-01T13:12:44.114Z,23.10
2019-05-01T13:14:37.797Z,22.70
2019-05-01T13:16:12.744Z,22.50
2019-05-01T13:17:47.399Z,23.00
2019-05-01T13:19:22.400Z,22.80
2019-05-01T13:20:56.977Z,23.40
2019-05-01T13:22:31.428Z,24.50
2019-05-01T13:24:24.737Z,25.10
2019-05-01T13:26:18.607Z,25.00
2019-05-01T13:28:30.053Z,24.70
2019-05-01T13:30:40.873Z,24.50
2019-05-01T13:32:41.590Z,24.80
2019-05-01T13:34:34.912Z,25.50
2019-05-01T13:36:27.912Z,25.00
2019-05-01T13:38:21.025Z,24.90
2019-05-01T13:40:15.728Z,25.20
2019-05-01T13:42:09.213Z,25.20
2019-05-01T13:44:02.579Z,26.30
2019-05-01T13:45:56.232Z,25.80
2019-05-01T13:47:48.221Z,26.20
2019-05-01T13:49:41.246Z,26.00
2019-05-01T13:51:34.227Z,25.40
2019-05-01T13:53:27.522Z,25.40
2019-05-01T13:55:21.915Z,25.70
2019-05-01T13:57:15.139Z,26.20
2019-05-01T13:59:09.746Z,26.20
2019-05-01T14:01:02.732Z,27.00
2019-05-01T14:02:56.117Z,25.50
2019-05-01T14:04:49.336Z,24.70
2019-05-01T14:06:42.384Z,24.60
2019-05-01T14:08:35.921Z,24.40
2019-05-01T14:10:29.500Z,24.70
2019-05-01T14:12:22.915Z,25.00
2019-05-01T14:14:16.232Z,25.30
2019-05-01T14:16:09.392Z,25.40
2019-05-01T14:18:02.869Z,25.50
2019-05-01T14:19:57.668Z,24.80
2019-05-01T14:22:09.294Z,25.40
2019-05-01T14:24:04.008Z,25.50
2019-05-01T14:26:01.281Z,24.20
2019-05-01T14:27:54.149Z,24.80
2019-05-01T14:29:47.425Z,24.80
2019-05-01T14:31:40.427Z,24.40
2019-05-01T14:33:34.613Z,25.50
2019-05-01T14:35:27.960Z,24.90
2019-05-01T14:37:29.489Z,24.40
2019-05-01T14:39:15.924Z,24.50
2019-05-01T14:41:09.599Z,24.20
2019-05-01T14:43:02.660Z,24.40
2019-05-01T14:44:55.795Z,24.10
2019-05-01T14:46:49.189Z,23.40
2019-05-01T14:48:42.611Z,23.00
2019-05-01T14:50:36.010Z,22.20
2019-05-01T14:52:29.374Z,22.10
2019-05-01T14:54:21.619Z,22.20
2019-05-01T14:56:14.818Z,22.00
2019-05-01T14:58:07.071Z,22.00
2019-05-01T14:59:59.776Z,21.70
2019-05-01T15:01:53.086Z,21.30
2019-05-01T15:03:45.430Z,20.70
2019-05-01T15:05:38.331Z,20.50
2019-05-01T15:07:42.783Z,20.40
2019-05-01T15:09:26.605Z,20.80
2019-05-01T15:11:20.008Z,20.90
2019-05-01T15:13:14.955Z,21.00
2019-05-01T15:15:26.261Z,20.90
2019-05-01T15:17:36.473Z,20.40
2019-05-01T15:19:31.169Z,19.60
2019-05-01T15:21:24.436Z,19.20
2019-05-01T15:23:17.293Z,18.80
2019-05-01T15:25:10.348Z,18.50
2019-05-01T15:27:03.885Z,18.40
2019-05-01T15:28:57.016Z,18.40
2019-05-01T15:30:50.932Z,19.00
2019-05-01T15:32:44.045Z,18.90
2019-05-01T15:34:37.089Z,18.40
2019-05-01T15:36:30.189Z,18.10
2019-05-01T15:38:22.409Z,17.80
2019-05-01T15:40:17.585Z,17.90
2019-05-01T15:42:16.608Z,17.70
2019-05-01T15:44:23.381Z,17.70
2019-05-01T15:46:16.443Z,18.50
2019-05-01T15:48:09.455Z,18.70
2019-05-01T15:50:02.674Z,18.60
2019-05-01T15:51:55.980Z,18.90
2019-05-01T15:53:49.185Z,19.30
2019-05-01T15:55:42.563Z,19.90
2019-05-01T15:57:34.955Z,19.70
2019-05-01T15:59:28.042Z,19.30
2019-05-01T16:01:21.453Z,18.90
2019-05-01T16:03:14.537Z,18.60
2019-05-01T16:05:07.927Z,18.60
2019-05-01T16:07:01.216Z,19.20
2019-05-01T16:08:55.997Z,18.80
2019-05-01T16:11:06.457Z,18.20
2019-05-01T16:13:01.304Z,17.80
2019-05-01T16:14:54.460Z,17.60
2019-05-01T16:16:47.473Z,17.40
2019-05-01T16:18:39.863Z,17.10
2019-05-01T16:20:32.661Z,17.10
2019-05-01T16:22:25.748Z,17.00
2019-05-01T16:24:06.769Z,17.10
2019-05-01T16:26:00.085Z,17.00
2019-05-01T16:27:54.511Z,17.00
2019-05-01T16:29:50.285Z,16.90
2019-05-01T16:31:43.353Z,16.80
2019-05-01T16:33:35.798Z,16.80
2019-05-01T16:35:29.034Z,16.60
2019-05-01T16:37:22.132Z,16.50
2019-05-01T16:39:16.286Z,16.70
2019-05-01T16:41:11.300Z,16.80
2019-05-01T16:43:05.706Z,16.90
2019-05-01T16:44:58.986Z,16.80
2019-05-01T16:46:52.020Z,16.90
2019-05-01T16:48:44.459Z,16.80
2019-05-01T16:50:37.522Z,16.80
2019-05-01T16:52:32.379Z,16.80
2019-05-01T16:54:25.875Z,16.90
2019-05-01T16:56:18.957Z,16.80
2019-05-01T16:58:13.693Z,16.60
2019-05-01T17:00:09.547Z,16.60
2019-05-01T17:02:10.315Z,16.50
2019-05-01T17:04:14.011Z,16.40
2019-05-01T17:06:10.536Z,16.50
2019-05-01T17:08:12.087Z,16.50
2019-05-01T17:10:08.930Z,16.60
2019-05-01T17:12:02.320Z,16.60
2019-05-01T17:13:54.746Z,16.60
2019-05-01T17:15:49.830Z,16.50
2019-05-01T17:17:43.171Z,16.30
2019-05-01T17:19:36.528Z,16.30
2019-05-01T17:21:28.875Z,16.20
2019-05-01T17:23:21.695Z,16.10
2019-05-01T17:25:14.693Z,16.20
2019-05-01T17:27:08.050Z,16.20
2019-05-01T17:29:01.476Z,16.20
2019-05-01T17:30:55.528Z,16.10
2019-05-01T17:32:48.832Z,16.00
2019-05-01T17:34:41.198Z,16.00
2019-05-01T17:36:34.153Z,15.90
2019-05-01T17:38:27.598Z,15.90
2019-05-01T17:40:20.768Z,15.90
2019-05-01T17:42:14.087Z,15.80
2019-05-01T17:44:07.191Z,15.80
2019-05-01T17:46:00.709Z,15.80
2019-05-01T17:47:57.920Z,15.70
2019-05-01T17:49:48.698Z,15.60
2019-05-01T17:51:42.727Z,15.50
2019-05-01T17:53:36.220Z,15.40
2019-05-01T17:55:29.283Z,15.40
2019-05-01T17:57:22.099Z,15.30
2019-05-01T17:59:15.404Z,15.20
2019-05-01T18:01:18.276Z,15.10
2019-05-01T18:03:21.941Z,15.10
2019-05-01T18:05:27.762Z,15.00
2019-05-01T18:07:20.707Z,15.00
2019-05-01T18:09:16.089Z,15.10
2019-05-01T18:11:13.682Z,15.00
2019-05-01T18:13:03.884Z,14.90
2019-05-01T18:14:56.252Z,14.90
2019-05-01T18:16:49.244Z,14.80
2019-05-01T18:18:43.471Z,14.70
2019-05-01T18:20:36.438Z,14.70
2019-05-01T18:22:40.234Z,14.60
2019-05-01T18:24:34.242Z,14.60
2019-05-01T18:26:28.651Z,14.50
2019-05-01T18:28:32.494Z,14.40
2019-05-01T18:30:27.255Z,14.40
2019-05-01T18:32:25.253Z,14.20
2019-05-01T18:34:18.264Z,14.20
2019-05-01T18:36:11.594Z,14.20
2019-05-01T18:38:11.617Z,14.20
2019-05-01T18:40:09.196Z,14.10
2019-05-01T18:42:10.051Z,14.10
2019-05-01T18:44:05.294Z,14.10
2019-05-01T18:46:01.300Z,14.00
2019-05-01T18:47:55.328Z,13.90
2019-05-01T18:49:48.858Z,13.90
2019-05-01T18:51:42.912Z,13.80
2019-05-01T18:53:37.268Z,13.80
2019-05-01T18:55:31.691Z,13.70
2019-05-01T18:57:26.353Z,13.60
2019-05-01T18:59:21.144Z,13.60
2019-05-01T19:01:15.990Z,13.50
2019-05-01T19:03:10.697Z,13.50
2019-05-01T19:05:08.753Z,13.50
2019-05-01T19:07:04.400Z,13.40
2019-05-01T19:08:59.087Z,13.40
2019-05-01T19:10:53.623Z,13.40
2019-05-01T19:12:48.968Z,13.30
2019-05-01T19:14:43.379Z,13.20
2019-05-01T19:16:39.972Z,13.20
2019-05-01T19:18:33.863Z,13.10
2019-05-01T19:20:28.671Z,13.10
2019-05-01T19:22:23.349Z,13.10
2019-05-01T19:24:18.203Z,13.10
2019-05-01T19:26:13.805Z,13.10
2019-05-01T19:28:09.623Z,13.10
2019-05-01T19:30:09.724Z,13.00
2019-05-01T19:32:02.588Z,13.00
2019-05-01T19:33:57.435Z,13.00
2019-05-01T19:35:52.019Z,12.90
2019-05-01T19:37:46.967Z,12.90
2019-05-01T19:39:43.819Z,12.90
2019-05-01T19:41:38.096Z,12.90
2019-05-01T19:43:35.752Z,12.90
2019-05-01T19:45:30.116Z,12.90
2019-05-01T19:47:24.865Z,12.90
2019-05-01T19:49:19.695Z,12.80
2019-05-01T19:51:14.446Z,12.80
2019-05-01T19:53:10.036Z,12.70
2019-05-01T19:55:07.752Z,12.70
2019-05-01T19:57:04.046Z,12.60
2019-05-01T19:58:58.934Z,12.70
2019-05-01T20:00:58.792Z,12.60
2019-05-01T20:02:54.198Z,12.60
2019-05-01T20:04:50.395Z,12.50
2019-05-01T20:06:47.452Z,12.50
2019-05-01T20:08:42.261Z,12.50
2019-05-01T20:10:37.968Z,12.50
2019-05-01T20:12:32.500Z,12.40
2019-05-01T20:14:27.468Z,12.40
2019-05-01T20:16:23.202Z,12.30
2019-05-01T20:18:17.789Z,12.30
2019-05-01T20:20:13.277Z,12.20
2019-05-01T20:22:07.584Z,12.20
2019-05-01T20:24:04.338Z,12.00
2019-05-01T20:25:58.801Z,11.90
2019-05-01T20:27:54.555Z,11.90
2019-05-01T20:29:49.356Z,11.80
2019-05-01T20:31:45.794Z,11.80
2019-05-01T20:33:44.177Z,11.70
2019-05-01T20:35:35.937Z,11.60
2019-05-01T20:37:30.575Z,11.60
2019-05-01T20:39:26.299Z,11.50
2019-05-01T20:41:20.885Z,11.60
2019-05-01T20:43:15.767Z,11.60
2019-05-01T20:45:17.512Z,11.70
2019-05-01T20:47:07.003Z,11.70
2019-05-01T20:49:06.357Z,11.70
2019-05-01T20:50:57.808Z,11.80
2019-05-01T20:52:52.099Z,11.80
2019-05-01T20:54:46.265Z,11.80
2019-05-01T20:56:41.906Z,11.70
2019-05-01T20:58:35.685Z,11.70
2019-05-01T21:00:28.958Z,11.60
2019-05-01T21:02:22.919Z,11.60
2019-05-01T21:04:34.211Z,11.60
2019-05-01T21:06:28.959Z,11.60
2019-05-01T21:08:39.139Z,11.50
2019-05-01T21:10:50.641Z,11.40
2019-05-01T21:12:43.235Z,11.40
2019-05-01T21:14:36.916Z,11.40
2019-05-01T21:16:32.854Z,11.40
2019-05-01T21:18:27.625Z,11.40
2019-05-01T21:20:20.561Z,11.40
2019-05-01T21:22:14.238Z,11.40
2019-05-01T21:24:07.643Z,11.40
2019-05-01T21:25:59.914Z,11.40
2019-05-01T21:27:54.145Z,11.40
2019-05-01T21:29:47.826Z,11.40
2019-05-01T21:31:40.595Z,11.30
2019-05-01T21:33:34.280Z,11.40
2019-05-01T21:35:27.435Z,11.30
2019-05-01T21:37:20.148Z,11.30
2019-05-01T21:39:14.986Z,11.30
2019-05-01T21:41:08.260Z,11.30
2019-05-01T21:43:02.722Z,11.20
2019-05-01T21:44:56.105Z,11.20
2019-05-01T21:46:48.490Z,11.10
2019-05-01T21:48:43.450Z,11.10
2019-05-01T21:50:36.408Z,11.10
2019-05-01T21:52:30.247Z,11.10
2019-05-01T21:54:23.244Z,11.10
2019-05-01T21:56:16.839Z,11.00
2019-05-01T21:58:10.205Z,11.00
2019-05-01T22:00:02.507Z,11.00
2019-05-01T22:01:56.983Z,10.90
2019-05-01T22:03:52.494Z,11.00
2019-05-01T22:05:45.081Z,11.00
2019-05-01T22:07:38.004Z,11.00
2019-05-01T22:09:32.120Z,10.90
2019-05-01T22:11:25.042Z,10.80
2019-05-01T22:13:20.311Z,10.80
2019-05-01T22:15:13.984Z,10.80
2019-05-01T22:17:08.788Z,10.80
2019-05-01T22:19:13.879Z,10.80
2019-05-01T22:21:08.617Z,10.80
2019-05-01T22:23:03.252Z,10.70
2019-05-01T22:25:14.091Z,10.70
2019-05-01T22:27:12.019Z,10.70
2019-05-01T22:29:07.043Z,10.60
2019-05-01T22:31:21.815Z,10.60
2019-05-01T22:33:12.980Z,10.60
2019-05-01T22:35:13.311Z,10.50
2019-05-01T22:37:06.195Z,10.40
2019-05-01T22:39:02.309Z,10.40
2019-05-01T22:41:06.547Z,10.40
2019-05-01T22:42:54.471Z,10.50
2019-05-01T22:44:47.467Z,10.60
2019-05-01T22:46:40.779Z,10.60
2019-05-01T22:48:33.607Z,10.60
2019-05-01T22:50:25.987Z,10.60
2019-05-01T22:52:19.011Z,10.60
2019-05-01T22:54:12.360Z,10.70
2019-05-01T22:56:05.369Z,10.60
2019-05-01T22:57:58.324Z,10.70
2019-05-01T22:59:50.708Z,10.70
2019-05-01T23:01:49.159Z,10.60
2019-05-01T23:03:47.450Z,10.50
2019-05-01T23:05:40.756Z,10.50
2019-05-01T23:07:34.036Z,10.40
2019-05-01T23:09:30.326Z,10.40
2019-05-01T23:11:24.998Z,10.40
2019-05-01T23:13:18.235Z,10.40
2019-05-01T23:15:13.188Z,10.40
2019-05-01T23:17:10.783Z,10.30
2019-05-01T23:19:03.866Z,10.20
2019-05-01T23:20:56.900Z,10.20
2019-05-01T23:22:49.756Z,10.10
2019-05-01T23:24:42.528Z,10.00
2019-05-01T23:26:36.404Z,10.00
2019-05-01T23:28:29.771Z,10.00
2019-05-01T23:30:23.201Z,9.90
2019-05-01T23:32:16.514Z,9.90
2019-05-01T23:34:09.880Z,9.80
2019-05-01T23:36:03.186Z,9.90
2019-05-01T23:37:56.591Z,9.80
2019-05-01T23:39:48.843Z,9.70
2019-05-01T23:41:45.746Z,9.70
2019-05-01T23:43:36.586Z,9.70
2019-05-01T23:45:28.912Z,9.70
2019-05-01T23:47:21.975Z,9.60
2019-05-01T23:49:14.210Z,9.70
2019-05-01T23:51:07.473Z,9.60
2019-05-01T23:53:00.660Z,9.50
2019-05-01T23:54:53.458Z,9.50
2019-05-01T23:56:46.257Z,9.50
2019-05-01T23:58:38.591Z,9.50
